Time;durP1;ratioP1;P1;durP2;ratioP2;P2;SDS_P1;SDS_P2;PMS_P1;PMS_P2;Temp;Humidity;BMP_temperature;BMP_pressure;BME280_temperature;BME280_humidity;BME280_pressure;Samples;Min_cycle;Max_cycle;Signal;HPM_P1;HPM_P2
2022/05/15 00:00:59;;;;;;;7.05;4.28;;;;;;;15.59;68.11;101235.69;2114972;28;20078;-71
2022/05/15 00:02:33;;;;;;;7.72;3.92;;;;;;;15.59;68.11;101246.31;2114234;28;20155;-72
2022/05/15 00:03:56;;;;;;;9.52;4.45;;;;;;;15.61;67.98;101246.34;2110704;28;20081;-72
2022/05/15 00:05:18;;;;;;;8.27;4.63;;;;;;;15.63;68.01;101236.56;2103082;28;20051;-72
2022/05/15 00:06:41;;;;;;;8.38;4.75;;;;;;;15.65;67.92;101235.69;2114770;27;20082;-72
2022/05/15 00:08:04;;;;;;;7.82;4.43;;;;;;;15.67;67.93;101241.03;2098549;28;20155;-72
2022/05/15 00:09:26;;;;;;;6.53;4.15;;;;;;;15.67;67.84;101239.25;2095952;28;20048;-72
2022/05/15 00:10:50;;;;;;;8.10;4.05;;;;;;;15.63;67.90;101241.88;2112216;28;20047;-72
2022/05/15 00:12:16;;;;;;;8.82;3.95;;;;;;;15.57;68.00;101239.22;2102753;28;20566;-72
2022/05/15 00:13:38;;;;;;;8.88;4.32;;;;;;;15.53;68.21;101240.97;2117754;27;20099;-72
2022/05/15 00:15:00;;;;;;;7.93;4.10;;;;;;;15.50;68.30;101243.59;2112678;28;20073;-73
2022/05/15 00:16:24;;;;;;;9.82;4.90;;;;;;;15.43;68.45;101247.09;2093189;28;20127;-72
2022/05/15 00:17:46;;;;;;;10.57;4.75;;;;;;;15.36;68.81;101242.69;2106615;28;20110;-72
2022/05/15 00:19:09;;;;;;;9.80;4.28;;;;;;;15.34;69.02;101233.78;2103739;28;20044;-72
2022/05/15 00:20:32;;;;;;;9.48;4.78;;;;;;;15.37;69.05;101231.13;2100485;28;20063;-72
2022/05/15 00:21:55;;;;;;;8.43;4.05;;;;;;;15.36;69.12;101232.91;2109868;28;20127;-72
2022/05/15 00:23:19;;;;;;;9.15;4.75;;;;;;;15.37;69.28;101228.47;2112349;28;20498;-72
2022/05/15 00:24:42;;;;;;;8.43;4.60;;;;;;;15.36;69.26;101227.56;2103310;28;20036;-72
2022/05/15 00:26:05;;;;;;;8.65;4.45;;;;;;;15.37;69.30;101226.69;2100591;28;20051;-72
2022/05/15 00:27:28;;;;;;;10.65;4.65;;;;;;;15.38;69.25;101225.81;2093081;28;20485;-72
2022/05/15 00:28:49;;;;;;;7.43;4.20;;;;;;;15.37;69.18;101218.72;2093045;28;20052;-72
2022/05/15 00:30:13;;;;;;;8.30;4.22;;;;;;;15.38;68.98;101216.94;2097794;28;20048;-72
2022/05/15 00:31:36;;;;;;;9.88;4.57;;;;;;;15.35;68.94;101217.84;2110232;28;20093;-73
2022/05/15 00:33:00;;;;;;;10.80;5.68;;;;;;;15.34;68.86;101216.06;2104816;28;20044;-72
2022/05/15 00:34:23;;;;;;;7.65;3.85;;;;;;;15.30;68.87;101210.69;2104119;28;20052;-73
2022/05/15 00:35:46;;;;;;;10.00;4.30;;;;;;;15.24;68.97;101213.34;2103131;28;20077;-72
2022/05/15 00:37:07;;;;;;;9.18;4.80;;;;;;;15.21;69.09;101214.25;2112240;28;20060;-72
2022/05/15 00:38:30;;;;;;;9.73;3.88;;;;;;;15.20;69.17;101209.78;2112071;28;20035;-72
2022/05/15 00:39:52;;;;;;;8.73;5.20;;;;;;;15.21;69.39;101208.03;2110870;28;20601;-72
2022/05/15 00:41:16;;;;;;;9.65;4.57;;;;;;;15.19;69.40;101210.69;2104040;28;20044;-72
2022/05/15 00:42:38;;;;;;;7.78;4.15;;;;;;;15.16;69.48;101206.22;2105588;28;20047;-72
2022/05/15 00:44:01;;;;;;;8.00;4.13;;;;;;;15.16;69.45;101208.88;2102405;28;20048;-72
2022/05/15 00:45:23;;;;;;;12.60;4.25;;;;;;;15.16;69.51;101205.38;2101068;28;20051;-72
2022/05/15 00:46:45;;;;;;;8.20;4.53;;;;;;;15.15;69.36;101204.47;2100979;28;20043;-72
2022/05/15 00:48:09;;;;;;;9.32;4.45;;;;;;;15.15;69.33;101206.25;2100182;28;20044;-72
2022/05/15 00:49:34;;;;;;;10.38;5.20;;;;;;;15.14;69.18;101210.66;2109227;28;20035;-72
2022/05/15 00:50:56;;;;;;;7.15;3.65;;;;;;;15.14;69.13;101201.81;2103540;28;20052;-72
2022/05/15 00:52:24;;;;;;;9.93;4.57;;;;;;;15.15;69.13;101207.13;2106336;28;20536;-72
2022/05/15 00:53:50;;;;;;;8.25;4.07;;;;;;;15.14;69.15;101205.34;2100677;28;20487;-72
2022/05/15 00:55:17;;;;;;;9.50;4.45;;;;;;;15.12;69.16;101206.22;2093658;28;20104;-72
2022/05/15 00:56:48;;;;;;;7.32;4.25;;;;;;;15.11;69.29;101201.78;2101931;28;20044;-72
2022/05/15 00:58:15;;;;;;;8.98;4.70;;;;;;;15.09;69.44;101206.22;2110003;28;20046;-71
2022/05/15 00:59:43;;;;;;;11.02;4.43;;;;;;;15.08;69.61;101209.75;2111891;28;20133;-72
2022/05/15 01:01:06;;;;;;;9.60;5.03;;;;;;;15.06;69.64;101204.41;2103987;28;20050;-72
2022/05/15 01:02:33;;;;;;;10.02;4.45;;;;;;;15.05;69.64;101205.28;2100891;28;20076;-72
2022/05/15 01:03:56;;;;;;;10.80;5.82;;;;;;;15.01;69.85;101205.28;2101963;28;20105;-72
2022/05/15 01:05:19;;;;;;;8.55;4.57;;;;;;;15.02;69.99;101207.06;2103437;28;20052;-72
2022/05/15 01:06:43;;;;;;;11.13;4.97;;;;;;;15.03;70.01;101209.72;2101227;28;20074;-71
2022/05/15 01:08:07;;;;;;;10.82;4.82;;;;;;;15.03;70.00;101198.22;2100343;28;20085;-72
2022/05/15 01:09:30;;;;;;;7.47;4.40;;;;;;;15.01;70.01;101206.19;2089614;28;20051;-71
2022/05/15 01:10:56;;;;;;;10.80;4.78;;;;;;;14.98;70.20;101205.25;2100592;28;20060;-72
2022/05/15 01:12:20;;;;;;;9.55;4.63;;;;;;;14.97;70.18;101201.72;2095649;28;20051;-72
2022/05/15 01:13:44;;;;;;;9.43;4.78;;;;;;;14.98;70.31;101200.81;2095464;28;20051;-72
2022/05/15 01:15:08;;;;;;;9.05;5.05;;;;;;;15.01;70.33;101205.28;2096977;28;20497;-72
2022/05/15 01:16:32;;;;;;;10.05;4.85;;;;;;;15.03;70.28;101203.53;2098115;28;20262;-72
2022/05/15 01:17:53;;;;;;;11.05;4.75;;;;;;;15.06;70.34;101207.09;2095964;28;20071;-72
2022/05/15 01:19:16;;;;;;;14.30;5.18;;;;;;;15.10;70.32;101199.97;2099318;28;20060;-72
2022/05/15 01:20:40;;;;;;;9.18;4.72;;;;;;;15.14;70.34;101199.13;2108840;28;20446;-72
2022/05/15 01:22:06;;;;;;;11.52;5.55;;;;;;;15.16;70.46;101198.25;2095235;28;20064;-73
2022/05/15 01:23:30;;;;;;;11.18;4.80;;;;;;;15.13;70.45;101200.00;2101805;28;20067;-73
2022/05/15 01:24:53;;;;;;;8.38;4.28;;;;;;;15.11;70.53;101194.69;2103847;28;20135;-72
2022/05/15 01:26:16;;;;;;;10.30;4.57;;;;;;;15.09;70.45;101187.59;2102825;28;20050;-72
2022/05/15 01:27:40;;;;;;;8.63;4.53;;;;;;;15.06;70.48;101192.91;2101696;28;20441;-72
2022/05/15 01:29:05;;;;;;;13.93;5.15;;;;;;;15.04;70.40;101194.66;2095371;28;20052;-72
2022/05/15 01:30:27;;;;;;;13.57;4.30;;;;;;;15.02;70.50;101189.34;2116954;27;20453;-72
2022/05/15 01:31:52;;;;;;;10.73;4.75;;;;;;;15.04;70.35;101192.88;2113250;28;20104;-72
2022/05/15 01:33:16;;;;;;;9.55;4.70;;;;;;;15.06;70.28;101198.22;2104126;28;20671;-72
2022/05/15 01:34:39;;;;;;;11.18;4.70;;;;;;;15.07;70.19;101192.00;2099773;28;20036;-72
2022/05/15 01:36:00;;;;;;;9.50;4.40;;;;;;;15.07;70.09;101195.56;2103118;28;20079;-72
2022/05/15 01:37:25;;;;;;;;;;;;;;;15.07;70.20;101195.56;2101243;28;20446;-72
2022/05/15 01:38:46;;;;;;;12.85;5.00;;;;;;;15.07;70.21;101197.34;2109161;28;19919;-72
2022/05/15 01:40:09;;;;;;;;;;;;;;;15.03;70.17;101196.41;2101906;28;20480;-72
2022/05/15 01:41:32;;;;;;;9.43;5.57;;;;;;;15.03;70.35;101199.06;2099631;28;20319;-72
2022/05/15 01:42:55;;;;;;;11.48;5.75;;;;;;;15.00;70.18;101199.06;2100642;28;20047;-72
2022/05/15 01:44:17;;;;;;;9.02;5.28;;;;;;;14.98;70.32;101197.28;2106864;28;20047;-72
2022/05/15 01:45:40;;;;;;;10.50;5.75;;;;;;;14.94;70.48;101201.72;2093799;28;20044;-73
2022/05/15 01:47:03;;;;;;;9.75;5.03;;;;;;;14.90;70.69;101194.56;2097652;28;20048;-72
2022/05/15 01:48:25;;;;;;;9.38;5.38;;;;;;;14.87;70.83;101194.59;2095057;28;20048;-72
2022/05/15 01:49:48;;;;;;;8.90;4.88;;;;;;;14.86;70.99;101194.56;2095439;28;20047;-72
2022/05/15 01:51:11;;;;;;;10.48;5.72;;;;;;;14.88;70.97;101192.81;2092477;28;20045;-71
2022/05/15 01:52:37;;;;;;;9.75;5.35;;;;;;;14.88;71.11;101192.81;2099571;28;20058;-72
2022/05/15 01:54:01;;;;;;;12.45;5.38;;;;;;;14.86;71.34;101194.56;2099360;28;20063;-72
2022/05/15 01:55:24;;;;;;;11.73;4.97;;;;;;;14.83;71.38;101187.50;2111554;28;20483;-72
2022/05/15 01:56:46;;;;;;;9.32;5.20;;;;;;;14.81;71.36;101194.56;2106093;28;20110;-72
2022/05/15 01:58:10;;;;;;;10.23;4.90;;;;;;;14.79;71.46;101193.66;2103076;28;20100;-72
2022/05/15 01:59:32;;;;;;;10.48;4.38;;;;;;;14.71;71.59;101198.03;2108839;28;20092;-72
2022/05/15 02:00:54;;;;;;;11.63;5.05;;;;;;;14.65;71.80;101200.66;2103260;28;20427;-72
2022/05/15 02:02:16;;;;;;;9.90;5.10;;;;;;;14.61;71.93;101194.44;2116943;27;20054;-72
2022/05/15 02:03:41;;;;;;;9.57;5.13;;;;;;;14.63;72.01;101200.66;2099468;28;20056;-72
2022/05/15 02:05:03;;;;;;;13.25;4.68;;;;;;;14.63;72.03;101198.00;2109259;28;20054;-72
2022/05/15 02:06:28;;;;;;;9.20;5.00;;;;;;;14.64;72.01;101202.41;2097131;28;20044;-72
2022/05/15 02:07:50;;;;;;;9.15;5.10;;;;;;;14.67;71.97;101206.88;2097730;28;20047;-72
2022/05/15 02:09:13;;;;;;;8.13;4.68;;;;;;;14.68;71.88;101198.91;2101413;28;20055;-72
2022/05/15 02:10:35;;;;;;;10.25;5.32;;;;;;;14.71;71.79;101200.69;2097246;28;20102;-71
2022/05/15 02:11:58;;;;;;;;;;;;;;;14.71;71.75;101203.34;2102744;28;20125;-72
2022/05/15 02:13:19;;;;;;;13.05;6.20;;;;;;;14.72;71.76;101199.81;2105603;28;19943;-72
2022/05/15 02:14:42;;;;;;;;;;;;;;;14.70;71.72;101198.94;2095123;28;20055;-72
2022/05/15 02:16:04;;;;;;;10.57;5.93;;;;;;;14.69;71.82;101200.69;2100323;28;19928;-72
2022/05/15 02:17:26;;;;;;;14.27;6.55;;;;;;;14.70;71.89;101198.94;2102998;28;20051;-72
2022/05/15 02:18:49;;;;;;;12.15;6.13;;;;;;;14.69;71.97;101195.38;2094748;28;20036;-71
2022/05/15 02:20:12;;;;;;;13.75;6.78;;;;;;;14.69;72.06;101187.41;2100027;28;20044;-72
2022/05/15 02:21:35;;;;;;;14.82;6.32;;;;;;;14.67;72.15;101198.91;2098992;28;20097;-72
2022/05/15 02:22:59;;;;;;;10.00;4.90;;;;;;;14.64;72.28;101201.53;2112522;27;20521;-72
2022/05/15 02:24:22;;;;;;;13.15;5.45;;;;;;;14.60;72.35;101197.09;2102947;28;20052;-72
2022/05/15 02:25:46;;;;;;;11.10;5.00;;;;;;;14.57;72.38;101199.75;2109130;28;20051;-71
2022/05/15 02:27:09;;;;;;;10.88;4.90;;;;;;;14.55;72.54;101202.38;2102842;28;20055;-72
2022/05/15 02:28:31;;;;;;;12.38;4.93;;;;;;;14.53;72.72;101198.81;2100458;28;20051;-72
2022/05/15 02:29:54;;;;;;;10.32;5.22;;;;;;;14.52;72.69;101207.66;2098538;28;20085;-72
2022/05/15 02:31:17;;;;;;;9.90;5.07;;;;;;;14.51;72.73;101203.22;2102191;28;20044;-72
2022/05/15 02:32:39;;;;;;;12.55;5.80;;;;;;;14.55;72.94;101204.13;2094410;28;20056;-72
2022/05/15 02:34:02;;;;;;;9.63;5.50;;;;;;;14.57;72.87;101194.44;2094857;28;20463;-72
2022/05/15 02:35:26;;;;;;;11.68;5.47;;;;;;;14.60;72.98;101202.41;2092147;28;20040;-72
2022/05/15 02:36:49;;;;;;;11.23;5.53;;;;;;;14.60;72.76;101205.94;2100292;28;20446;-72
2022/05/15 02:38:14;;;;;;;9.57;5.20;;;;;;;14.60;72.78;101202.41;2102479;28;20082;-71
2022/05/15 02:39:38;;;;;;;9.52;5.57;;;;;;;14.58;72.79;101196.19;2102175;28;20103;-72
2022/05/15 02:41:00;;;;;;;12.52;5.22;;;;;;;14.57;72.81;101199.75;2108398;28;20048;-72
2022/05/15 02:42:23;;;;;;;13.18;5.90;;;;;;;14.56;72.82;101203.28;2110408;28;20043;-72
2022/05/15 02:43:46;;;;;;;12.77;5.35;;;;;;;14.57;73.04;101203.25;2102839;28;20430;-72
2022/05/15 02:45:10;;;;;;;13.07;6.13;;;;;;;14.59;73.06;101197.97;2102424;28;20070;-72
2022/05/15 02:46:33;;;;;;;12.35;5.95;;;;;;;14.60;73.16;101199.75;2103173;28;20127;-72
2022/05/15 02:47:56;;;;;;;12.40;5.95;;;;;;;14.62;73.20;101200.66;2101896;28;20052;-73
2022/05/15 02:51:03;;;;;;;15.00;5.63;;;;;;;14.61;73.42;101204.19;2113515;28;20411;-72
2022/05/15 02:52:26;;;;;;;10.05;5.63;;;;;;;14.59;73.61;101197.97;2102915;28;20544;-73
2022/05/15 02:53:50;;;;;;;15.18;6.22;;;;;;;14.60;73.76;101207.72;2111086;28;20051;-72
2022/05/15 02:55:13;;;;;;;11.82;4.78;;;;;;;14.54;73.73;101199.69;2111626;28;20045;-71
2022/05/15 02:56:38;;;;;;;12.25;5.63;;;;;;;14.49;73.95;101205.00;2105534;28;20040;-72
2022/05/15 02:58:02;;;;;;;13.27;5.80;;;;;;;14.47;74.18;101200.53;2100843;28;20105;-73
2022/05/15 02:59:26;;;;;;;13.18;5.68;;;;;;;14.49;74.43;101198.78;2094655;28;20055;-73
2022/05/15 03:00:48;;;;;;;10.70;5.75;;;;;;;14.53;74.52;101201.47;2112467;28;20218;-72
2022/05/15 03:02:11;;;;;;;13.68;6.30;;;;;;;14.57;74.53;101199.75;2101056;28;20051;-72
2022/05/15 03:03:34;;;;;;;13.98;5.53;;;;;;;14.60;74.63;101202.41;2106872;28;20130;-72
2022/05/15 03:04:57;;;;;;;10.55;5.47;;;;;;;14.59;74.78;101204.16;2107369;28;20076;-72
2022/05/15 03:06:20;;;;;;;11.18;5.13;;;;;;;14.62;74.81;101205.97;2095858;28;20045;-72
2022/05/15 03:07:42;;;;;;;10.45;4.75;;;;;;;14.50;74.93;101205.88;2096280;28;20053;-72
2022/05/15 03:09:06;;;;;;;;;;;;;;;14.35;75.16;101203.97;2099420;28;20090;-71
2022/05/15 03:10:29;;;;;;;12.20;6.57;;;;;;;14.27;75.62;101205.66;2108746;28;20355;-72
2022/05/15 03:11:52;;;;;;;14.18;6.43;;;;;;;14.27;75.83;101203.91;2103346;28;20051;-72
2022/05/15 03:13:14;;;;;;;11.50;6.20;;;;;;;14.25;75.92;101210.06;2104520;28;20094;-72
2022/05/15 03:14:36;;;;;;;12.63;6.00;;;;;;;14.23;76.06;101215.41;2100070;28;20039;-72
2022/05/15 03:16:00;;;;;;;13.68;6.35;;;;;;;14.22;76.29;101210.06;2101099;28;20036;-72
2022/05/15 03:17:23;;;;;;;11.80;6.47;;;;;;;14.24;76.33;101206.53;2109223;28;20143;-72
2022/05/15 03:18:50;;;;;;;11.85;6.18;;;;;;;14.25;76.43;101213.63;2104482;28;20316;-72
2022/05/15 03:20:15;;;;;;;13.40;6.22;;;;;;;14.21;76.47;101209.19;2109568;28;20047;-72
2022/05/15 03:21:38;;;;;;;13.85;6.30;;;;;;;14.20;76.66;101209.16;2097447;28;20045;-72
2022/05/15 03:23:00;;;;;;;12.15;6.15;;;;;;;14.20;76.73;101211.81;2101491;28;20135;-72
2022/05/15 03:24:23;;;;;;;;;;;;;;;14.21;76.75;101217.16;2102192;28;20043;-72
2022/05/15 03:25:45;;;;;;;15.35;6.13;;;;;;;14.22;76.97;101213.63;2101625;28;19923;-72
2022/05/15 03:27:07;;;;;;;13.63;6.65;;;;;;;14.28;76.92;101221.63;2109920;28;20522;-72
2022/05/15 03:28:30;;;;;;;12.75;6.82;;;;;;;14.35;77.01;101217.25;2112827;28;20583;-72
2022/05/15 03:29:53;;;;;;;15.23;6.80;;;;;;;14.38;77.07;101222.59;2095740;28;20049;-72
2022/05/15 03:31:15;;;;;;;12.88;7.45;;;;;;;14.39;77.23;101226.16;2093289;28;20037;-72
2022/05/15 03:32:38;;;;;;;12.95;6.95;;;;;;;14.45;77.39;101229.75;2101787;28;20450;-73
2022/05/15 03:33:59;;;;;;;16.15;6.80;;;;;;;14.54;77.67;101229.81;2095837;28;20611;-72
2022/05/15 03:35:22;;;;;;;12.55;5.95;;;;;;;14.66;77.87;101234.31;2104137;28;20520;-72
2022/05/15 03:36:47;;;;;;;12.63;5.88;;;;;;;14.77;77.77;101238.81;2097760;28;20151;-72
2022/05/15 03:38:09;;;;;;;14.90;6.30;;;;;;;14.89;77.85;101246.00;2098805;28;20120;-72
2022/05/15 03:39:33;;;;;;;10.13;5.65;;;;;;;14.99;77.88;101241.59;2099808;28;20044;-72
2022/05/15 03:40:55;;;;;;;10.38;5.65;;;;;;;15.06;77.85;101246.97;2096043;28;20063;-73
2022/05/15 03:42:19;;;;;;;10.35;5.30;;;;;;;15.17;77.97;101247.00;2103656;28;20071;-72
2022/05/15 03:43:40;;;;;;;13.63;6.38;;;;;;;15.28;77.85;101249.72;2111915;28;20039;-72
2022/05/15 03:45:03;;;;;;;11.15;5.78;;;;;;;15.38;77.94;101251.53;2105548;28;20135;-73
2022/05/15 03:46:26;;;;;;;11.82;5.90;;;;;;;15.49;78.00;101263.13;2106709;28;20536;-73
2022/05/15 03:47:51;;;;;;;11.38;5.85;;;;;;;15.57;77.86;101264.03;2104279;28;20040;-72
2022/05/15 03:49:15;;;;;;;10.02;4.70;;;;;;;15.66;77.98;101264.09;2113113;28;20058;-72
2022/05/15 03:50:38;;;;;;;7.70;4.57;;;;;;;15.78;77.86;101265.88;2104313;28;20067;-72
2022/05/15 03:52:02;;;;;;;10.60;5.30;;;;;;;15.89;77.88;101262.34;2099318;28;20515;-73
2022/05/15 03:53:25;;;;;;;11.13;5.38;;;;;;;16.02;77.78;101262.38;2112056;27;20054;-72
2022/05/15 03:54:49;;;;;;;11.88;5.32;;;;;;;16.13;77.58;101269.50;2098372;28;20488;-72
2022/05/15 03:56:12;;;;;;;8.98;4.30;;;;;;;16.24;77.20;101266.84;2112444;28;20519;-72
2022/05/15 03:57:33;;;;;;;10.98;4.68;;;;;;;16.37;76.88;101267.72;2104368;28;20044;-72
2022/05/15 03:58:56;;;;;;;11.50;4.57;;;;;;;16.48;76.65;101269.50;2099516;28;20048;-73
2022/05/15 04:00:19;;;;;;;10.60;4.97;;;;;;;16.59;76.46;101265.06;2102562;28;20134;-73
2022/05/15 04:01:40;;;;;;;14.70;4.82;;;;;;;16.67;76.11;101279.28;2106963;28;20040;-72
2022/05/15 04:03:03;;;;;;;7.47;4.13;;;;;;;16.67;75.68;101276.63;2095300;28;20075;-73
2022/05/15 04:04:26;;;;;;;8.85;4.25;;;;;;;16.59;75.32;101281.06;2093267;28;20662;-73
2022/05/15 04:05:47;;;;;;;8.13;3.95;;;;;;;16.51;75.26;101280.16;2096310;28;20048;-72
2022/05/15 04:07:10;;;;;;;12.32;3.88;;;;;;;16.49;75.49;101281.94;2104988;28;20078;-72
2022/05/15 04:08:32;;;;;;;8.07;3.88;;;;;;;16.53;75.42;101290.84;2111486;28;20100;-73
2022/05/15 04:09:56;;;;;;;10.77;4.47;;;;;;;16.61;75.60;101289.06;2103416;28;20143;-72
2022/05/15 04:11:18;;;;;;;6.57;3.67;;;;;;;16.65;75.29;101289.09;2112305;27;20495;-72
2022/05/15 04:12:41;;;;;;;8.48;4.22;;;;;;;16.73;75.00;101297.97;2106470;28;20114;-73
2022/05/15 04:14:04;;;;;;;11.07;3.70;;;;;;;16.84;74.73;101297.06;2101510;28;20051;-73
2022/05/15 04:15:26;;;;;;;8.18;3.90;;;;;;;16.94;74.47;101304.13;2099546;28;20150;-73
2022/05/15 04:16:49;;;;;;;6.40;3.78;;;;;;;17.04;74.16;101301.47;2101389;28;20071;-72
2022/05/15 04:18:12;;;;;;;10.27;3.95;;;;;;;17.17;73.63;101301.44;2103940;28;20036;-72
2022/05/15 04:19:34;;;;;;;10.73;4.55;;;;;;;17.37;73.63;101302.25;2103675;28;20052;-73
2022/05/15 04:20:56;;;;;;;11.60;4.38;;;;;;;17.61;73.11;101304.88;2095652;28;20140;-72
2022/05/15 04:22:19;;;;;;;11.63;4.20;;;;;;;17.84;72.46;101308.31;2104011;28;20055;-73
2022/05/15 04:23:42;;;;;;;13.63;5.88;;;;;;;18.06;71.85;101308.16;2116367;27;20039;-72
2022/05/15 04:25:06;;;;;;;9.45;4.63;;;;;;;18.30;71.43;101302.69;2109316;28;20534;-73
2022/05/15 04:26:29;;;;;;;9.77;4.40;;;;;;;18.51;71.14;101306.97;2104021;28;20085;-72
2022/05/15 04:27:52;;;;;;;8.07;3.92;;;;;;;18.71;71.02;101300.56;2111505;28;20101;-72
2022/05/15 04:29:13;;;;;;;8.88;3.63;;;;;;;18.93;70.82;101303.94;2105468;28;20179;-72
2022/05/15 04:30:36;;;;;;;8.32;4.68;;;;;;;19.14;70.44;101309.97;2109455;28;20562;-73
2022/05/15 04:31:59;;;;;;;9.63;3.72;;;;;;;19.34;70.25;101302.59;2103468;28;20052;-72
2022/05/15 04:33:21;;;;;;;9.50;4.38;;;;;;;19.54;69.71;101299.72;2103014;28;20076;-73
2022/05/15 04:34:44;;;;;;;8.30;3.88;;;;;;;19.74;69.00;101311.97;2092956;28;20046;-72
2022/05/15 04:36:07;;;;;;;8.10;3.72;;;;;;;19.96;68.52;101298.22;2109447;28;20150;-73
2022/05/15 04:37:30;;;;;;;7.22;3.50;;;;;;;20.16;68.09;101302.41;2098242;28;20044;-72
2022/05/15 04:38:51;;;;;;;11.43;4.10;;;;;;;20.37;67.03;101309.28;2107877;28;20426;-72
2022/05/15 04:40:17;;;;;;;12.27;4.45;;;;;;;20.56;66.34;101320.59;2111989;28;20555;-72
2022/05/15 04:41:39;;;;;;;5.95;3.70;;;;;;;20.73;66.19;101317.63;2118527;27;20055;-72
2022/05/15 04:43:02;;;;;;;9.52;3.78;;;;;;;20.95;65.41;101319.00;2113002;28;20150;-72
2022/05/15 04:44:24;;;;;;;7.45;3.78;;;;;;;21.15;64.51;101322.22;2110993;28;20040;-73
2022/05/15 04:45:47;;;;;;;7.28;3.60;;;;;;;21.37;63.91;101317.34;2109472;28;20054;-73
2022/05/15 04:47:09;;;;;;;7.03;3.60;;;;;;;21.61;63.11;101318.63;2110963;28;20059;-73
2022/05/15 04:48:32;;;;;;;9.35;4.03;;;;;;;21.82;62.08;101326.25;2095803;28;20460;-73
2022/05/15 04:49:55;;;;;;;11.10;4.40;;;;;;;22.05;61.31;101320.41;2102737;27;20624;-72
2022/05/15 04:51:18;;;;;;;7.32;3.50;;;;;;;22.26;60.67;101323.47;2094689;28;20056;-72
2022/05/15 04:52:40;;;;;;;9.70;3.33;;;;;;;22.47;59.71;101321.19;2109397;28;20050;-73
2022/05/15 04:54:03;;;;;;;7.95;3.72;;;;;;;22.71;58.88;101327.78;2106310;28;20088;-72
2022/05/15 04:55:26;;;;;;;9.30;3.50;;;;;;;22.96;58.21;101328.97;2111834;27;20044;-72
2022/05/15 04:56:49;;;;;;;11.57;3.88;;;;;;;23.18;57.61;101329.25;2106738;28;20097;-73
2022/05/15 04:58:11;;;;;;;10.43;3.75;;;;;;;23.35;56.86;101327.00;2110425;27;20521;-72
2022/05/15 04:59:34;;;;;;;11.38;4.45;;;;;;;23.55;56.29;101330.03;2103452;28;20100;-72
2022/05/15 05:00:55;;;;;;;8.00;4.22;;;;;;;23.80;55.67;101338.28;2107499;28;20451;-73
2022/05/15 05:02:17;;;;;;;9.48;4.15;;;;;;;24.06;55.09;101342.88;2103402;28;20136;-73
2022/05/15 05:03:40;;;;;;;11.18;3.95;;;;;;;24.31;54.09;101332.22;2109210;28;20047;-72
2022/05/15 05:05:03;;;;;;;6.57;3.30;;;;;;;24.49;53.49;101343.31;2112206;28;20096;-72
2022/05/15 05:06:26;;;;;;;7.03;3.45;;;;;;;24.71;52.99;101342.63;2102979;28;20055;-72
2022/05/15 05:07:49;;;;;;;8.55;3.65;;;;;;;24.83;52.65;101343.09;2109676;28;20051;-72
2022/05/15 05:09:11;;;;;;;12.65;4.10;;;;;;;25.00;52.41;101350.66;2108424;27;20066;-72
2022/05/15 05:10:34;;;;;;;;;;;;;;;25.18;51.11;101344.59;2104341;28;20044;-70
2022/05/15 05:11:57;;;;;;;10.07;3.65;;;;;;;25.45;50.59;101347.25;2107577;27;19927;-73
2022/05/15 05:13:19;;;;;;;8.23;3.75;;;;;;;25.67;50.35;101342.81;2098190;28;20104;-73
2022/05/15 05:14:42;;;;;;;10.35;3.70;;;;;;;25.90;49.62;101355.50;2099994;28;20048;-73
2022/05/15 05:16:04;;;;;;;8.32;3.47;;;;;;;26.03;49.02;101352.25;2099817;28;20048;-72
2022/05/15 05:17:26;;;;;;;;;;;;;;;26.01;49.09;101353.25;2099002;28;20055;-73
2022/05/15 05:18:50;;;;;;;10.40;3.30;;;;;;;26.24;49.11;101346.94;2098664;28;19959;-73
2022/05/15 05:20:14;;;;;;;8.60;3.25;;;;;;;26.53;48.16;101350.25;2115187;27;20062;-70
2022/05/15 05:21:37;;;;;;;7.82;3.03;;;;;;;26.75;47.00;101342.13;2101244;28;20436;-70
2022/05/15 05:22:59;;;;;;;9.65;3.17;;;;;;;26.87;46.63;101346.16;2106424;27;20047;-71
2022/05/15 05:24:22;;;;;;;11.00;3.47;;;;;;;26.92;46.35;101347.75;2106894;28;20069;-70
2022/05/15 05:25:46;;;;;;;7.35;3.00;;;;;;;27.10;46.25;101347.91;2106550;27;20051;-72
2022/05/15 05:27:07;;;;;;;9.05;3.72;;;;;;;27.30;45.92;101345.22;2101310;28;20052;-73
2022/05/15 05:28:30;;;;;;;8.40;3.13;;;;;;;27.49;45.63;101351.56;2105903;28;21836;-70
2022/05/15 05:29:52;;;;;;;9.10;3.67;;;;;;;27.64;45.62;101350.00;2107065;28;20041;-73
2022/05/15 05:31:15;;;;;;;9.35;2.90;;;;;;;27.75;45.38;101345.88;2106105;27;20391;-73
2022/05/15 05:32:36;;;;;;;10.45;3.35;;;;;;;27.92;45.29;101355.94;2102086;28;20487;-71
2022/05/15 05:33:58;;;;;;;8.32;3.28;;;;;;;28.09;45.06;101352.44;2100681;28;20052;-71
2022/05/15 05:35:23;;;;;;;8.13;2.97;;;;;;;28.29;44.81;101357.78;2107008;28;20043;-71
2022/05/15 05:36:47;;;;;;;10.27;3.72;;;;;;;28.44;44.33;101350.72;2104750;28;20167;-71
2022/05/15 05:38:09;;;;;;;9.60;2.95;;;;;;;28.41;44.34;101348.19;2106820;27;20059;-73
2022/05/15 05:39:30;;;;;;;6.80;2.60;;;;;;;28.48;44.32;101353.25;2113991;27;20186;-73
2022/05/15 05:40:55;;;;;;;8.68;3.17;;;;;;;28.66;43.81;101351.44;2104952;28;20043;-73
2022/05/15 05:42:17;;;;;;;8.88;3.58;;;;;;;28.80;43.35;101354.38;2112044;28;20055;-73
2022/05/15 05:43:40;;;;;;;10.25;2.90;;;;;;;28.95;43.25;101349.13;2100786;28;20035;-73
2022/05/15 05:45:03;;;;;;;7.35;3.00;;;;;;;29.07;42.96;101354.81;2103953;28;20411;-73
2022/05/15 05:46:25;;;;;;;8.00;2.50;;;;;;;29.13;42.60;101350.88;2108126;28;20050;-73
2022/05/15 05:47:48;;;;;;;11.52;3.63;;;;;;;29.16;42.40;101359.75;2110987;28;20452;-74
2022/05/15 05:49:10;;;;;;;7.70;2.80;;;;;;;29.20;42.49;101355.94;2105724;28;20051;-70
2022/05/15 05:50:33;;;;;;;6.57;3.72;;;;;;;29.30;42.28;101351.75;2114269;27;20043;-71
2022/05/15 05:51:54;;;;;;;9.45;2.63;;;;;;;29.42;42.04;101361.13;2105822;28;20677;-70
2022/05/15 05:53:17;;;;;;;5.35;2.50;;;;;;;29.49;42.05;101356.25;2094751;28;20459;-71
2022/05/15 05:54:38;;;;;;;16.70;4.00;;;;;;;29.49;42.05;101353.53;2100619;28;20116;-71
2022/05/15 05:56:02;;;;;;;7.22;2.65;;;;;;;29.55;42.00;101364.06;2111206;28;20047;-71
2022/05/15 05:57:25;;;;;;;15.55;4.18;;;;;;;29.61;41.59;101363.75;2102827;28;20119;-71
2022/05/15 05:58:48;;;;;;;7.57;2.75;;;;;;;29.66;41.64;101354.41;2092511;28;20052;-71
2022/05/15 06:00:14;;;;;;;7.03;2.80;;;;;;;29.77;41.65;101358.34;2104401;27;20048;-71
2022/05/15 06:01:36;;;;;;;6.75;2.67;;;;;;;29.90;41.25;101357.59;2103296;28;20086;-71
2022/05/15 06:04:44;;;;;;;8.63;2.80;;;;;;;30.10;40.47;101360.13;2109489;28;20040;-71
2022/05/15 06:06:05;;;;;;;6.60;2.55;;;;;;;29.98;40.11;101349.94;2110949;28;20051;-72
2022/05/15 06:07:29;;;;;;;6.88;2.60;;;;;;;29.97;40.19;101352.72;2104912;28;20430;-72
2022/05/15 06:08:50;;;;;;;9.07;2.97;;;;;;;29.96;40.47;101348.25;2112408;27;20443;-72
2022/05/15 06:10:15;;;;;;;9.15;2.55;;;;;;;29.95;40.44;101349.19;2112579;27;20043;-71
2022/05/15 06:11:38;;;;;;;6.25;2.60;;;;;;;29.97;40.43;101353.59;2103431;28;20055;-72
2022/05/15 06:13:00;;;;;;;9.35;2.47;;;;;;;30.02;40.25;101354.22;2108671;28;20054;-71
2022/05/15 06:14:23;;;;;;;7.78;2.80;;;;;;;30.04;40.19;101355.03;2111248;28;20099;-72
2022/05/15 06:15:46;;;;;;;6.90;2.70;;;;;;;30.06;40.42;101358.53;2103010;28;20099;-73
2022/05/15 06:17:08;;;;;;;8.07;2.30;;;;;;;29.96;40.11;101360.00;2110544;28;20078;-72
2022/05/15 06:18:31;;;;;;;9.07;2.80;;;;;;;29.99;40.30;101368.03;2097193;28;20704;-71
2022/05/15 06:19:54;;;;;;;5.45;2.58;;;;;;;30.13;40.02;101360.94;2108736;28;20044;-72
2022/05/15 06:21:17;;;;;;;6.53;2.63;;;;;;;30.22;39.95;101361.28;2096848;28;20085;-72
2022/05/15 06:22:40;;;;;;;4.63;2.30;;;;;;;30.22;39.76;101358.56;2107764;28;20071;-72
2022/05/15 06:24:02;;;;;;;9.52;2.60;;;;;;;30.22;40.00;101365.84;2097446;28;20122;-71
2022/05/15 06:25:25;;;;;;;7.57;2.58;;;;;;;30.24;39.71;101362.06;2107798;28;20483;-71
2022/05/15 06:26:49;;;;;;;6.32;2.60;;;;;;;30.21;39.58;101358.63;2109617;28;20054;-72
2022/05/15 06:28:12;;;;;;;6.13;2.63;;;;;;;30.10;39.69;101370.16;2101502;28;21587;-71
2022/05/15 06:29:36;;;;;;;8.20;3.00;;;;;;;30.09;39.97;101368.38;2107888;28;20051;-72